sensor_id;sensor_type;location;lat;lon;timestamp;temperature;humidity
947;DHT22;460;48.734;9.152;2022-09-09T00:00:25;14.50;99.60
947;DHT22;460;48.734;9.152;2022-09-09T00:02:59;14.60;99.60
947;DHT22;460;48.734;9.152;2022-09-09T00:05:36;14.60;99.50
947;DHT22;460;48.734;9.152;2022-09-09T00:08:15;14.50;99.20
947;DHT22;460;48.734;9.152;2022-09-09T00:10:49;14.60;99.30
947;DHT22;460;48.734;9.152;2022-09-09T00:13:21;14.60;99.40
947;DHT22;460;48.734;9.152;2022-09-09T00:15:57;14.50;99.70
947;DHT22;460;48.734;9.152;2022-09-09T00:18:27;14.50;99.60
947;DHT22;460;48.734;9.152;2022-09-09T00:21:04;14.50;99.70
947;DHT22;460;48.734;9.152;2022-09-09T00:23:35;14.60;99.80
947;DHT22;460;48.734;9.152;2022-09-09T00:26:09;14.60;99.80
947;DHT22;460;48.734;9.152;2022-09-09T00:28:41;14.70;99.70
947;DHT22;460;48.734;9.152;2022-09-09T00:31:13;14.70;99.40
947;DHT22;460;48.734;9.152;2022-09-09T00:33:43;14.70;99.30
947;DHT22;460;48.734;9.152;2022-09-09T00:36:14;14.70;99.40
947;DHT22;460;48.734;9.152;2022-09-09T00:38:47;14.80;99.10
947;DHT22;460;48.734;9.152;2022-09-09T00:41:20;14.90;98.80
947;DHT22;460;48.734;9.152;2022-09-09T00:43:55;15.00;98.60
947;DHT22;460;48.734;9.152;2022-09-09T00:46:53;14.90;99.00
947;DHT22;460;48.734;9.152;2022-09-09T00:49:27;14.90;99.00
947;DHT22;460;48.734;9.152;2022-09-09T00:52:08;14.90;98.80
947;DHT22;460;48.734;9.152;2022-09-09T00:54:49;15.00;99.00
947;DHT22;460;48.734;9.152;2022-09-09T00:57:25;15.00;99.40
947;DHT22;460;48.734;9.152;2022-09-09T00:59:59;15.00;99.40
947;DHT22;460;48.734;9.152;2022-09-09T01:02:35;15.10;98.30
947;DHT22;460;48.734;9.152;2022-09-09T01:05:10;15.20;98.10
947;DHT22;460;48.734;9.152;2022-09-09T01:07:43;15.20;98.30
947;DHT22;460;48.734;9.152;2022-09-09T01:10:16;15.20;98.10
947;DHT22;460;48.734;9.152;2022-09-09T01:12:47;15.10;98.10
947;DHT22;460;48.734;9.152;2022-09-09T01:15:19;15.10;98.30
947;DHT22;460;48.734;9.152;2022-09-09T01:17:53;15.20;98.30
947;DHT22;460;48.734;9.152;2022-09-09T01:20:25;15.20;98.00
947;DHT22;460;48.734;9.152;2022-09-09T01:23:16;15.10;98.60
947;DHT22;460;48.734;9.152;2022-09-09T01:26:11;15.10;99.00
947;DHT22;460;48.734;9.152;2022-09-09T01:28:43;15.10;98.60
947;DHT22;460;48.734;9.152;2022-09-09T01:31:14;15.10;98.70
947;DHT22;460;48.734;9.152;2022-09-09T01:33:42;15.10;98.70
947;DHT22;460;48.734;9.152;2022-09-09T01:36:13;15.10;98.70
947;DHT22;460;48.734;9.152;2022-09-09T01:38:43;15.10;98.60
947;DHT22;460;48.734;9.152;2022-09-09T01:41:13;15.00;98.30
947;DHT22;460;48.734;9.152;2022-09-09T01:43:41;15.10;98.10
947;DHT22;460;48.734;9.152;2022-09-09T01:46:08;15.00;98.60
947;DHT22;460;48.734;9.152;2022-09-09T01:48:37;15.00;98.80
947;DHT22;460;48.734;9.152;2022-09-09T01:51:05;15.00;98.60
947;DHT22;460;48.734;9.152;2022-09-09T01:53:33;14.90;98.30
947;DHT22;460;48.734;9.152;2022-09-09T01:56:07;14.90;98.20
947;DHT22;460;48.734;9.152;2022-09-09T01:58:47;14.80;97.90
947;DHT22;460;48.734;9.152;2022-09-09T02:01:33;14.90;97.90
947;DHT22;460;48.734;9.152;2022-09-09T02:04:11;14.90;98.10
947;DHT22;460;48.734;9.152;2022-09-09T02:06:45;14.90;98.20
947;DHT22;460;48.734;9.152;2022-09-09T02:09:13;14.80;98.10
947;DHT22;460;48.734;9.152;2022-09-09T02:11:42;14.90;97.90
947;DHT22;460;48.734;9.152;2022-09-09T02:14:15;14.90;98.20
947;DHT22;460;48.734;9.152;2022-09-09T02:16:49;14.80;98.30
947;DHT22;460;48.734;9.152;2022-09-09T02:19:20;14.80;98.60
947;DHT22;460;48.734;9.152;2022-09-09T02:21:54;14.80;98.20
947;DHT22;460;48.734;9.152;2022-09-09T02:24:25;14.70;98.10
947;DHT22;460;48.734;9.152;2022-09-09T02:26:54;14.90;98.40
947;DHT22;460;48.734;9.152;2022-09-09T02:29:27;14.70;98.60
947;DHT22;460;48.734;9.152;2022-09-09T02:31:59;14.50;98.70
947;DHT22;460;48.734;9.152;2022-09-09T02:34:30;14.50;98.80
947;DHT22;460;48.734;9.152;2022-09-09T02:37:01;14.30;98.80
947;DHT22;460;48.734;9.152;2022-09-09T02:39:29;14.30;99.00
947;DHT22;460;48.734;9.152;2022-09-09T02:41:57;14.30;99.20
947;DHT22;460;48.734;9.152;2022-09-09T02:44:27;14.40;99.20
947;DHT22;460;48.734;9.152;2022-09-09T02:47:13;14.30;99.00
947;DHT22;460;48.734;9.152;2022-09-09T02:49:51;14.40;98.90
947;DHT22;460;48.734;9.152;2022-09-09T02:52:24;14.40;98.60
947;DHT22;460;48.734;9.152;2022-09-09T02:54:59;14.30;98.60
947;DHT22;460;48.734;9.152;2022-09-09T02:57:28;14.30;99.00
947;DHT22;460;48.734;9.152;2022-09-09T02:59:59;14.20;99.20
947;DHT22;460;48.734;9.152;2022-09-09T03:02:29;14.30;99.50
947;DHT22;460;48.734;9.152;2022-09-09T03:04:56;14.30;99.40
947;DHT22;460;48.734;9.152;2022-09-09T03:07:23;14.30;99.00
947;DHT22;460;48.734;9.152;2022-09-09T03:09:50;14.20;99.20
947;DHT22;460;48.734;9.152;2022-09-09T03:12:19;14.20;99.70
947;DHT22;460;48.734;9.152;2022-09-09T03:14:46;14.30;99.50
947;DHT22;460;48.734;9.152;2022-09-09T03:17:14;14.20;99.80
947;DHT22;460;48.734;9.152;2022-09-09T03:19:41;14.20;99.80
947;DHT22;460;48.734;9.152;2022-09-09T03:22:09;14.30;99.90
947;DHT22;460;48.734;9.152;2022-09-09T03:24:36;14.40;99.70
947;DHT22;460;48.734;9.152;2022-09-09T03:27:03;14.40;99.30
947;DHT22;460;48.734;9.152;2022-09-09T03:29:30;14.40;99.40
947;DHT22;460;48.734;9.152;2022-09-09T03:31:57;14.40;99.70
947;DHT22;460;48.734;9.152;2022-09-09T03:34:25;14.30;99.50
947;DHT22;460;48.734;9.152;2022-09-09T03:36:52;14.40;99.30
947;DHT22;460;48.734;9.152;2022-09-09T03:39:19;14.50;98.70
947;DHT22;460;48.734;9.152;2022-09-09T03:41:46;14.50;98.20
947;DHT22;460;48.734;9.152;2022-09-09T03:44:14;14.60;98.00
947;DHT22;460;48.734;9.152;2022-09-09T03:46:40;14.60;98.60
947;DHT22;460;48.734;9.152;2022-09-09T03:49:07;14.40;99.10
947;DHT22;460;48.734;9.152;2022-09-09T03:51:37;14.50;99.00
947;DHT22;460;48.734;9.152;2022-09-09T03:54:04;14.50;98.70
947;DHT22;460;48.734;9.152;2022-09-09T03:56:33;14.60;98.30
947;DHT22;460;48.734;9.152;2022-09-09T03:59:00;14.70;98.20
947;DHT22;460;48.734;9.152;2022-09-09T04:01:27;14.80;98.00
947;DHT22;460;48.734;9.152;2022-09-09T04:03:54;14.70;98.40
947;DHT22;460;48.734;9.152;2022-09-09T04:06:24;14.70;98.20
947;DHT22;460;48.734;9.152;2022-09-09T04:08:52;14.70;98.00
947;DHT22;460;48.734;9.152;2022-09-09T04:11:21;14.70;97.80
947;DHT22;460;48.734;9.152;2022-09-09T04:13:48;14.70;98.40
947;DHT22;460;48.734;9.152;2022-09-09T04:16:15;14.60;98.90
947;DHT22;460;48.734;9.152;2022-09-09T04:18:42;14.70;98.70
947;DHT22;460;48.734;9.152;2022-09-09T04:21:09;14.70;98.20
947;DHT22;460;48.734;9.152;2022-09-09T04:23:37;14.70;98.20
947;DHT22;460;48.734;9.152;2022-09-09T04:26:06;14.70;98.10
947;DHT22;460;48.734;9.152;2022-09-09T04:28:34;14.80;98.10
947;DHT22;460;48.734;9.152;2022-09-09T04:31:06;14.80;97.80
947;DHT22;460;48.734;9.152;2022-09-09T04:33:33;14.80;98.00
947;DHT22;460;48.734;9.152;2022-09-09T04:36:00;14.90;97.90
947;DHT22;460;48.734;9.152;2022-09-09T04:38:27;14.90;97.80
947;DHT22;460;48.734;9.152;2022-09-09T04:40:54;14.90;97.50
947;DHT22;460;48.734;9.152;2022-09-09T04:43:23;14.80;97.70
947;DHT22;460;48.734;9.152;2022-09-09T04:45:51;14.90;97.80
947;DHT22;460;48.734;9.152;2022-09-09T04:48:18;15.00;98.40
947;DHT22;460;48.734;9.152;2022-09-09T04:50:54;14.90;99.00
947;DHT22;460;48.734;9.152;2022-09-09T04:53:21;14.80;99.50
947;DHT22;460;48.734;9.152;2022-09-09T04:55:48;14.70;99.90
947;DHT22;460;48.734;9.152;2022-09-09T04:58:15;14.70;99.90
947;DHT22;460;48.734;9.152;2022-09-09T05:00:44;14.60;99.90
947;DHT22;460;48.734;9.152;2022-09-09T05:03:10;14.50;99.90
947;DHT22;460;48.734;9.152;2022-09-09T05:05:38;14.50;99.90
947;DHT22;460;48.734;9.152;2022-09-09T05:08:06;14.40;99.90
947;DHT22;460;48.734;9.152;2022-09-09T05:10:35;14.30;99.90
947;DHT22;460;48.734;9.152;2022-09-09T05:13:02;14.40;99.90
947;DHT22;460;48.734;9.152;2022-09-09T05:15:30;14.30;99.90
947;DHT22;460;48.734;9.152;2022-09-09T05:17:58;14.30;99.90
947;DHT22;460;48.734;9.152;2022-09-09T05:20:25;14.30;99.90
947;DHT22;460;48.734;9.152;2022-09-09T05:22:53;14.30;99.90
947;DHT22;460;48.734;9.152;2022-09-09T05:25:20;14.40;99.90
947;DHT22;460;48.734;9.152;2022-09-09T05:27:47;14.50;99.90
947;DHT22;460;48.734;9.152;2022-09-09T05:30:15;14.50;99.90
947;DHT22;460;48.734;9.152;2022-09-09T05:32:42;14.50;99.90
947;DHT22;460;48.734;9.152;2022-09-09T05:35:10;14.60;99.90
947;DHT22;460;48.734;9.152;2022-09-09T05:37:37;14.60;99.90
947;DHT22;460;48.734;9.152;2022-09-09T05:40:04;14.60;99.90
947;DHT22;460;48.734;9.152;2022-09-09T05:42:32;14.60;99.90
947;DHT22;460;48.734;9.152;2022-09-09T05:44:58;14.60;99.90
947;DHT22;460;48.734;9.152;2022-09-09T05:47:25;14.70;99.90
947;DHT22;460;48.734;9.152;2022-09-09T05:49:53;14.80;99.90
947;DHT22;460;48.734;9.152;2022-09-09T05:52:22;14.90;99.90
947;DHT22;460;48.734;9.152;2022-09-09T05:54:49;15.00;99.90
947;DHT22;460;48.734;9.152;2022-09-09T05:57:15;15.00;99.90
947;DHT22;460;48.734;9.152;2022-09-09T05:59:42;14.90;99.90
947;DHT22;460;48.734;9.152;2022-09-09T06:02:09;14.90;99.90
947;DHT22;460;48.734;9.152;2022-09-09T06:04:36;15.00;99.90
947;DHT22;460;48.734;9.152;2022-09-09T06:07:04;15.00;99.90
947;DHT22;460;48.734;9.152;2022-09-09T06:09:32;15.10;99.90
947;DHT22;460;48.734;9.152;2022-09-09T06:11:59;15.20;99.90
947;DHT22;460;48.734;9.152;2022-09-09T06:14:26;15.30;99.90
947;DHT22;460;48.734;9.152;2022-09-09T06:16:53;15.30;99.50
947;DHT22;460;48.734;9.152;2022-09-09T06:19:20;15.30;99.20
947;DHT22;460;48.734;9.152;2022-09-09T06:21:47;15.40;99.50
947;DHT22;460;48.734;9.152;2022-09-09T06:24:14;15.40;99.90
947;DHT22;460;48.734;9.152;2022-09-09T06:26:44;15.40;99.90
947;DHT22;460;48.734;9.152;2022-09-09T06:29:11;15.40;99.70
947;DHT22;460;48.734;9.152;2022-09-09T06:31:38;15.50;99.30
947;DHT22;460;48.734;9.152;2022-09-09T06:34:06;15.60;99.00
947;DHT22;460;48.734;9.152;2022-09-09T06:36:35;15.60;99.60
947;DHT22;460;48.734;9.152;2022-09-09T06:39:03;15.60;99.10
947;DHT22;460;48.734;9.152;2022-09-09T06:41:31;15.70;99.30
947;DHT22;460;48.734;9.152;2022-09-09T06:44:00;15.80;99.90
947;DHT22;460;48.734;9.152;2022-09-09T06:46:28;15.70;99.10
947;DHT22;460;48.734;9.152;2022-09-09T06:48:56;15.80;99.80
947;DHT22;460;48.734;9.152;2022-09-09T06:51:25;16.00;99.90
947;DHT22;460;48.734;9.152;2022-09-09T06:53:54;15.80;99.90
947;DHT22;460;48.734;9.152;2022-09-09T06:56:22;15.90;99.20
947;DHT22;460;48.734;9.152;2022-09-09T06:58:50;15.90;99.90
947;DHT22;460;48.734;9.152;2022-09-09T07:01:20;16.00;99.40
947;DHT22;460;48.734;9.152;2022-09-09T07:03:50;16.00;99.60
947;DHT22;460;48.734;9.152;2022-09-09T07:06:19;16.10;98.90
947;DHT22;460;48.734;9.152;2022-09-09T07:08:49;16.20;98.80
947;DHT22;460;48.734;9.152;2022-09-09T07:11:17;16.20;99.40
947;DHT22;460;48.734;9.152;2022-09-09T07:13:44;16.30;98.60
947;DHT22;460;48.734;9.152;2022-09-09T07:16:13;16.40;99.20
947;DHT22;460;48.734;9.152;2022-09-09T07:18:42;16.40;98.80
947;DHT22;460;48.734;9.152;2022-09-09T07:21:10;16.50;98.60
947;DHT22;460;48.734;9.152;2022-09-09T07:23:37;16.50;98.60
947;DHT22;460;48.734;9.152;2022-09-09T07:26:08;16.50;98.70
947;DHT22;460;48.734;9.152;2022-09-09T07:28:36;16.60;98.30
947;DHT22;460;48.734;9.152;2022-09-09T07:31:04;16.80;98.00
947;DHT22;460;48.734;9.152;2022-09-09T07:33:33;16.80;98.10
947;DHT22;460;48.734;9.152;2022-09-09T07:36:07;16.80;97.90
947;DHT22;460;48.734;9.152;2022-09-09T07:38:38;16.80;97.80
947;DHT22;460;48.734;9.152;2022-09-09T07:41:08;16.80;97.90
947;DHT22;460;48.734;9.152;2022-09-09T07:43:38;17.00;98.30
947;DHT22;460;48.734;9.152;2022-09-09T07:46:05;17.20;98.30
947;DHT22;460;48.734;9.152;2022-09-09T07:48:33;17.40;97.30
947;DHT22;460;48.734;9.152;2022-09-09T07:51:06;17.40;97.60
947;DHT22;460;48.734;9.152;2022-09-09T07:53:34;17.40;97.60
947;DHT22;460;48.734;9.152;2022-09-09T07:56:05;17.50;97.60
947;DHT22;460;48.734;9.152;2022-09-09T07:58:32;17.70;97.00
947;DHT22;460;48.734;9.152;2022-09-09T08:00:59;17.90;97.00
947;DHT22;460;48.734;9.152;2022-09-09T08:03:26;18.00;96.90
947;DHT22;460;48.734;9.152;2022-09-09T08:05:53;18.10;96.30
947;DHT22;460;48.734;9.152;2022-09-09T08:08:28;18.20;95.30
947;DHT22;460;48.734;9.152;2022-09-09T08:11:02;18.30;94.90
947;DHT22;460;48.734;9.152;2022-09-09T08:13:30;18.30;95.50
947;DHT22;460;48.734;9.152;2022-09-09T08:16:04;18.40;95.70
947;DHT22;460;48.734;9.152;2022-09-09T08:18:31;18.60;95.60
947;DHT22;460;48.734;9.152;2022-09-09T08:21:05;18.70;95.40
947;DHT22;460;48.734;9.152;2022-09-09T08:23:33;19.00;94.50
947;DHT22;460;48.734;9.152;2022-09-09T08:26:04;19.10;94.20
947;DHT22;460;48.734;9.152;2022-09-09T08:28:31;19.10;94.60
947;DHT22;460;48.734;9.152;2022-09-09T08:31:05;19.10;93.90
947;DHT22;460;48.734;9.152;2022-09-09T08:33:32;19.00;94.10
947;DHT22;460;48.734;9.152;2022-09-09T08:35:59;19.20;93.90
947;DHT22;460;48.734;9.152;2022-09-09T08:38:26;19.30;93.90
947;DHT22;460;48.734;9.152;2022-09-09T08:41:02;19.50;93.40
947;DHT22;460;48.734;9.152;2022-09-09T08:43:31;19.50;92.50
947;DHT22;460;48.734;9.152;2022-09-09T08:46:04;19.50;92.60
947;DHT22;460;48.734;9.152;2022-09-09T08:48:50;19.40;92.60
947;DHT22;460;48.734;9.152;2022-09-09T08:51:18;19.50;92.70
947;DHT22;460;48.734;9.152;2022-09-09T08:53:49;19.50;92.80
947;DHT22;460;48.734;9.152;2022-09-09T08:56:21;19.70;92.90
947;DHT22;460;48.734;9.152;2022-09-09T08:58:49;20.00;91.80
947;DHT22;460;48.734;9.152;2022-09-09T09:01:28;20.20;90.90
947;DHT22;460;48.734;9.152;2022-09-09T09:04:00;20.30;91.10
947;DHT22;460;48.734;9.152;2022-09-09T09:06:39;20.40;90.60
947;DHT22;460;48.734;9.152;2022-09-09T09:09:11;20.40;89.70
947;DHT22;460;48.734;9.152;2022-09-09T09:11:46;20.20;87.70
947;DHT22;460;48.734;9.152;2022-09-09T09:14:18;20.20;89.90
947;DHT22;460;48.734;9.152;2022-09-09T09:16:51;20.10;90.60
947;DHT22;460;48.734;9.152;2022-09-09T09:19:19;19.80;90.10
947;DHT22;460;48.734;9.152;2022-09-09T09:21:53;19.70;91.80
947;DHT22;460;48.734;9.152;2022-09-09T09:24:25;19.60;92.30
947;DHT22;460;48.734;9.152;2022-09-09T09:26:55;19.20;96.30
947;DHT22;460;48.734;9.152;2022-09-09T09:29:25;18.60;97.00
947;DHT22;460;48.734;9.152;2022-09-09T09:31:53;18.60;97.60
947;DHT22;460;48.734;9.152;2022-09-09T09:34:21;18.00;99.90
947;DHT22;460;48.734;9.152;2022-09-09T09:36:53;17.80;99.90
947;DHT22;460;48.734;9.152;2022-09-09T09:39:26;17.50;99.90
947;DHT22;460;48.734;9.152;2022-09-09T09:41:55;17.80;99.90
947;DHT22;460;48.734;9.152;2022-09-09T09:44:26;17.30;99.90
947;DHT22;460;48.734;9.152;2022-09-09T09:47:04;17.40;99.90
947;DHT22;460;48.734;9.152;2022-09-09T09:49:32;17.40;99.90
947;DHT22;460;48.734;9.152;2022-09-09T09:52:00;17.40;99.90
947;DHT22;460;48.734;9.152;2022-09-09T09:54:28;17.50;99.90
947;DHT22;460;48.734;9.152;2022-09-09T09:57:08;17.60;99.90
947;DHT22;460;48.734;9.152;2022-09-09T09:59:36;17.70;99.90
947;DHT22;460;48.734;9.152;2022-09-09T10:02:24;17.80;99.90
947;DHT22;460;48.734;9.152;2022-09-09T10:05:01;18.10;99.90
947;DHT22;460;48.734;9.152;2022-09-09T10:07:28;18.30;99.90
947;DHT22;460;48.734;9.152;2022-09-09T10:09:57;18.30;99.90
947;DHT22;460;48.734;9.152;2022-09-09T10:12:39;18.50;99.90
947;DHT22;460;48.734;9.152;2022-09-09T10:15:30;18.70;99.90
947;DHT22;460;48.734;9.152;2022-09-09T10:18:03;19.00;99.90
947;DHT22;460;48.734;9.152;2022-09-09T10:20:38;19.00;99.90
947;DHT22;460;48.734;9.152;2022-09-09T10:23:21;19.10;99.90
947;DHT22;460;48.734;9.152;2022-09-09T10:26:15;19.20;99.90
947;DHT22;460;48.734;9.152;2022-09-09T10:29:15;19.30;99.90
947;DHT22;460;48.734;9.152;2022-09-09T10:31:59;19.60;98.30
947;DHT22;460;48.734;9.152;2022-09-09T10:37:34;19.60;99.90
947;DHT22;460;48.734;9.152;2022-09-09T10:40:20;19.70;98.50
947;DHT22;460;48.734;9.152;2022-09-09T10:42:50;19.70;97.90
947;DHT22;460;48.734;9.152;2022-09-09T10:45:21;19.70;99.10
947;DHT22;460;48.734;9.152;2022-09-09T10:48:03;19.80;99.30
947;DHT22;460;48.734;9.152;2022-09-09T10:50:50;19.50;99.90
947;DHT22;460;48.734;9.152;2022-09-09T10:53:24;19.30;99.50
947;DHT22;460;48.734;9.152;2022-09-09T10:55:59;19.30;99.90
947;DHT22;460;48.734;9.152;2022-09-09T10:58:33;19.20;99.90
947;DHT22;460;48.734;9.152;2022-09-09T11:01:11;19.20;99.90
947;DHT22;460;48.734;9.152;2022-09-09T11:03:42;19.50;98.50
947;DHT22;460;48.734;9.152;2022-09-09T11:06:13;19.50;99.90
947;DHT22;460;48.734;9.152;2022-09-09T11:08:42;19.50;98.90
947;DHT22;460;48.734;9.152;2022-09-09T11:11:12;19.40;99.90
947;DHT22;460;48.734;9.152;2022-09-09T11:13:45;19.50;99.90
947;DHT22;460;48.734;9.152;2022-09-09T11:16:23;19.60;99.40
947;DHT22;460;48.734;9.152;2022-09-09T11:18:57;19.70;99.90
947;DHT22;460;48.734;9.152;2022-09-09T11:21:28;19.60;96.60
947;DHT22;460;48.734;9.152;2022-09-09T11:23:59;19.50;97.30
947;DHT22;460;48.734;9.152;2022-09-09T11:26:31;19.50;97.00
947;DHT22;460;48.734;9.152;2022-09-09T11:29:14;19.40;93.90
947;DHT22;460;48.734;9.152;2022-09-09T11:31:54;19.20;92.50
947;DHT22;460;48.734;9.152;2022-09-09T11:34:35;18.90;93.00
947;DHT22;460;48.734;9.152;2022-09-09T11:37:21;19.00;91.60
947;DHT22;460;48.734;9.152;2022-09-09T11:40:17;19.00;92.50
947;DHT22;460;48.734;9.152;2022-09-09T11:42:45;18.90;91.20
947;DHT22;460;48.734;9.152;2022-09-09T11:45:23;18.70;92.00
947;DHT22;460;48.734;9.152;2022-09-09T11:47:56;18.70;92.70
947;DHT22;460;48.734;9.152;2022-09-09T11:50:35;18.60;92.00
947;DHT22;460;48.734;9.152;2022-09-09T11:53:19;18.60;93.50
947;DHT22;460;48.734;9.152;2022-09-09T11:56:09;18.60;92.10
947;DHT22;460;48.734;9.152;2022-09-09T11:58:43;18.70;92.20
947;DHT22;460;48.734;9.152;2022-09-09T12:01:15;19.00;92.00
947;DHT22;460;48.734;9.152;2022-09-09T12:03:46;19.30;91.60
947;DHT22;460;48.734;9.152;2022-09-09T12:06:17;19.40;90.90
947;DHT22;460;48.734;9.152;2022-09-09T12:08:48;19.60;91.40
947;DHT22;460;48.734;9.152;2022-09-09T12:11:25;19.50;88.60
947;DHT22;460;48.734;9.152;2022-09-09T12:13:53;19.30;90.10
947;DHT22;460;48.734;9.152;2022-09-09T12:16:32;19.20;90.20
947;DHT22;460;48.734;9.152;2022-09-09T12:19:15;19.50;89.70
947;DHT22;460;48.734;9.152;2022-09-09T12:21:48;19.60;90.40
947;DHT22;460;48.734;9.152;2022-09-09T12:24:22;19.80;90.40
947;DHT22;460;48.734;9.152;2022-09-09T12:26:56;19.70;90.20
947;DHT22;460;48.734;9.152;2022-09-09T12:29:31;19.90;88.80
947;DHT22;460;48.734;9.152;2022-09-09T12:32:02;20.00;82.70
947;DHT22;460;48.734;9.152;2022-09-09T12:34:37;20.00;83.00
947;DHT22;460;48.734;9.152;2022-09-09T12:37:11;20.00;81.50
947;DHT22;460;48.734;9.152;2022-09-09T12:39:45;20.30;81.50
947;DHT22;460;48.734;9.152;2022-09-09T12:42:19;20.40;81.40
947;DHT22;460;48.734;9.152;2022-09-09T12:44:57;20.30;80.90
947;DHT22;460;48.734;9.152;2022-09-09T12:47:31;20.00;79.30
947;DHT22;460;48.734;9.152;2022-09-09T12:50:02;19.90;83.50
947;DHT22;460;48.734;9.152;2022-09-09T12:52:32;20.10;85.20
947;DHT22;460;48.734;9.152;2022-09-09T12:55:02;20.10;84.70
947;DHT22;460;48.734;9.152;2022-09-09T12:57:34;20.00;83.40
947;DHT22;460;48.734;9.152;2022-09-09T13:00:08;20.10;85.30
947;DHT22;460;48.734;9.152;2022-09-09T13:02:46;20.20;84.30
947;DHT22;460;48.734;9.152;2022-09-09T13:05:19;20.20;82.90
947;DHT22;460;48.734;9.152;2022-09-09T13:07:46;20.00;83.90
947;DHT22;460;48.734;9.152;2022-09-09T13:10:15;20.10;82.50
947;DHT22;460;48.734;9.152;2022-09-09T13:12:44;20.10;82.00
947;DHT22;460;48.734;9.152;2022-09-09T13:15:16;20.10;83.50
947;DHT22;460;48.734;9.152;2022-09-09T13:17:50;20.10;84.10
947;DHT22;460;48.734;9.152;2022-09-09T13:20:20;20.40;82.80
947;DHT22;460;48.734;9.152;2022-09-09T13:22:48;20.80;82.20
947;DHT22;460;48.734;9.152;2022-09-09T13:25:21;21.20;82.10
947;DHT22;460;48.734;9.152;2022-09-09T13:27:57;21.90;82.60
947;DHT22;460;48.734;9.152;2022-09-09T13:30:28;23.60;75.20
947;DHT22;460;48.734;9.152;2022-09-09T13:33:03;25.50;70.50
947;DHT22;460;48.734;9.152;2022-09-09T13:35:32;26.20;64.40
947;DHT22;460;48.734;9.152;2022-09-09T13:38:07;25.90;62.80
947;DHT22;460;48.734;9.152;2022-09-09T13:40:35;25.60;61.20
947;DHT22;460;48.734;9.152;2022-09-09T13:43:02;24.60;61.60
947;DHT22;460;48.734;9.152;2022-09-09T13:45:30;23.70;62.40
947;DHT22;460;48.734;9.152;2022-09-09T13:48:09;23.10;63.70
947;DHT22;460;48.734;9.152;2022-09-09T13:50:37;24.50;63.70
947;DHT22;460;48.734;9.152;2022-09-09T13:53:04;24.60;64.90
947;DHT22;460;48.734;9.152;2022-09-09T13:55:31;25.60;61.00
947;DHT22;460;48.734;9.152;2022-09-09T13:57:59;26.00;60.60
947;DHT22;460;48.734;9.152;2022-09-09T14:00:29;26.30;59.80
947;DHT22;460;48.734;9.152;2022-09-09T14:02:57;27.30;56.60
947;DHT22;460;48.734;9.152;2022-09-09T14:05:26;28.00;56.10
947;DHT22;460;48.734;9.152;2022-09-09T14:07:54;28.80;54.70
947;DHT22;460;48.734;9.152;2022-09-09T14:10:21;28.90;53.30
947;DHT22;460;48.734;9.152;2022-09-09T14:12:48;29.20;53.90
947;DHT22;460;48.734;9.152;2022-09-09T14:15:15;29.40;52.20
947;DHT22;460;48.734;9.152;2022-09-09T14:17:42;29.20;51.40
947;DHT22;460;48.734;9.152;2022-09-09T14:20:10;28.80;51.50
947;DHT22;460;48.734;9.152;2022-09-09T14:22:40;28.00;50.70
947;DHT22;460;48.734;9.152;2022-09-09T14:25:09;27.70;53.80
947;DHT22;460;48.734;9.152;2022-09-09T14:27:36;27.90;52.10
947;DHT22;460;48.734;9.152;2022-09-09T14:30:05;28.30;52.70
947;DHT22;460;48.734;9.152;2022-09-09T14:32:32;28.30;51.30
947;DHT22;460;48.734;9.152;2022-09-09T14:34:59;28.60;50.70
947;DHT22;460;48.734;9.152;2022-09-09T14:37:27;28.00;49.80
947;DHT22;460;48.734;9.152;2022-09-09T14:39:56;27.20;50.10
947;DHT22;460;48.734;9.152;2022-09-09T14:42:24;26.00;51.70
947;DHT22;460;48.734;9.152;2022-09-09T14:44:52;24.90;53.00
947;DHT22;460;48.734;9.152;2022-09-09T14:47:19;24.50;55.00
947;DHT22;460;48.734;9.152;2022-09-09T14:49:45;23.80;54.50
947;DHT22;460;48.734;9.152;2022-09-09T14:52:15;23.10;55.10
947;DHT22;460;48.734;9.152;2022-09-09T14:54:42;23.00;55.10
947;DHT22;460;48.734;9.152;2022-09-09T14:57:08;22.80;57.30
947;DHT22;460;48.734;9.152;2022-09-09T14:59:36;22.70;57.70
947;DHT22;460;48.734;9.152;2022-09-09T15:02:03;22.50;57.70
947;DHT22;460;48.734;9.152;2022-09-09T15:04:30;22.40;55.50
947;DHT22;460;48.734;9.152;2022-09-09T15:06:57;22.30;57.80
947;DHT22;460;48.734;9.152;2022-09-09T15:09:24;22.20;57.30
947;DHT22;460;48.734;9.152;2022-09-09T15:11:51;22.10;58.90
947;DHT22;460;48.734;9.152;2022-09-09T15:14:18;22.10;58.60
947;DHT22;460;48.734;9.152;2022-09-09T15:16:46;21.90;57.90
947;DHT22;460;48.734;9.152;2022-09-09T15:19:13;21.80;59.00
947;DHT22;460;48.734;9.152;2022-09-09T15:21:39;21.80;58.20
947;DHT22;460;48.734;9.152;2022-09-09T15:24:06;21.50;58.00
947;DHT22;460;48.734;9.152;2022-09-09T15:26:34;21.40;58.50
947;DHT22;460;48.734;9.152;2022-09-09T15:29:04;21.40;59.30
947;DHT22;460;48.734;9.152;2022-09-09T15:31:31;21.20;60.20
947;DHT22;460;48.734;9.152;2022-09-09T15:34:01;21.30;58.70
947;DHT22;460;48.734;9.152;2022-09-09T15:36:29;21.40;63.10
947;DHT22;460;48.734;9.152;2022-09-09T15:38:58;21.50;60.10
947;DHT22;460;48.734;9.152;2022-09-09T15:41:26;21.10;59.60
947;DHT22;460;48.734;9.152;2022-09-09T15:43:55;21.30;59.70
947;DHT22;460;48.734;9.152;2022-09-09T15:46:26;21.10;59.50
947;DHT22;460;48.734;9.152;2022-09-09T15:48:54;20.80;60.60
947;DHT22;460;48.734;9.152;2022-09-09T15:51:24;20.80;59.30
947;DHT22;460;48.734;9.152;2022-09-09T15:53:54;20.70;61.00
947;DHT22;460;48.734;9.152;2022-09-09T15:56:22;20.60;61.60
947;DHT22;460;48.734;9.152;2022-09-09T15:58:49;20.50;60.30
947;DHT22;460;48.734;9.152;2022-09-09T16:01:18;20.60;59.60
947;DHT22;460;48.734;9.152;2022-09-09T16:03:46;20.20;60.10
947;DHT22;460;48.734;9.152;2022-09-09T16:06:13;20.40;60.90
947;DHT22;460;48.734;9.152;2022-09-09T16:08:44;20.40;59.80
947;DHT22;460;48.734;9.152;2022-09-09T16:11:13;20.30;60.40
947;DHT22;460;48.734;9.152;2022-09-09T16:13:42;20.30;61.90
947;DHT22;460;48.734;9.152;2022-09-09T16:16:11;20.10;63.60
947;DHT22;460;48.734;9.152;2022-09-09T16:18:39;20.00;65.20
947;DHT22;460;48.734;9.152;2022-09-09T16:21:06;19.90;65.60
947;DHT22;460;48.734;9.152;2022-09-09T16:23:34;19.80;63.80
947;DHT22;460;48.734;9.152;2022-09-09T16:26:02;19.80;63.70
947;DHT22;460;48.734;9.152;2022-09-09T16:28:29;19.80;63.40
947;DHT22;460;48.734;9.152;2022-09-09T16:30:57;19.70;63.00
947;DHT22;460;48.734;9.152;2022-09-09T16:33:24;19.60;67.20
947;DHT22;460;48.734;9.152;2022-09-09T16:35:52;19.50;63.20
947;DHT22;460;48.734;9.152;2022-09-09T16:38:18;19.60;65.40
947;DHT22;460;48.734;9.152;2022-09-09T16:40:45;19.10;67.20
947;DHT22;460;48.734;9.152;2022-09-09T16:43:14;19.30;65.90
947;DHT22;460;48.734;9.152;2022-09-09T16:45:42;19.20;67.00
947;DHT22;460;48.734;9.152;2022-09-09T16:48:09;19.40;69.10
947;DHT22;460;48.734;9.152;2022-09-09T16:50:36;19.00;69.60
947;DHT22;460;48.734;9.152;2022-09-09T16:53:04;19.10;68.10
947;DHT22;460;48.734;9.152;2022-09-09T16:55:37;19.00;67.20
947;DHT22;460;48.734;9.152;2022-09-09T16:58:05;18.90;67.30
947;DHT22;460;48.734;9.152;2022-09-09T17:00:33;18.70;67.60